sensor_id;sensor_type;location;lat;lon;timestamp;temperature;humidity
15676;DHT22;7938;47.666;9.434;2022-09-09T04:01:58;13.70;99.90
15676;DHT22;7938;47.666;9.434;2022-09-09T04:04:25;13.80;99.90
15676;DHT22;7938;47.666;9.434;2022-09-09T04:06:52;13.80;99.90
15676;DHT22;7938;47.666;9.434;2022-09-09T04:09:19;13.80;99.90
15676;DHT22;7938;47.666;9.434;2022-09-09T04:11:47;13.90;99.90
15676;DHT22;7938;47.666;9.434;2022-09-09T04:14:15;13.90;99.90
15676;DHT22;7938;47.666;9.434;2022-09-09T04:16:41;13.90;99.90
15676;DHT22;7938;47.666;9.434;2022-09-09T04:19:11;13.90;99.90
15676;DHT22;7938;47.666;9.434;2022-09-09T04:21:39;13.90;99.90
15676;DHT22;7938;47.666;9.434;2022-09-09T04:24:06;13.90;99.90
15676;DHT22;7938;47.666;9.434;2022-09-09T04:26:34;13.90;99.90
15676;DHT22;7938;47.666;9.434;2022-09-09T04:29:02;14.00;99.90
15676;DHT22;7938;47.666;9.434;2022-09-09T04:31:29;13.90;99.90
15676;DHT22;7938;47.666;9.434;2022-09-09T04:33:56;14.00;99.90
15676;DHT22;7938;47.666;9.434;2022-09-09T04:36:24;14.00;99.90
15676;DHT22;7938;47.666;9.434;2022-09-09T04:38:51;14.00;99.90
15676;DHT22;7938;47.666;9.434;2022-09-09T04:41:18;14.00;99.90
15676;DHT22;7938;47.666;9.434;2022-09-09T04:43:45;14.00;99.90
15676;DHT22;7938;47.666;9.434;2022-09-09T04:46:12;14.00;99.90
15676;DHT22;7938;47.666;9.434;2022-09-09T04:48:39;14.10;99.90
15676;DHT22;7938;47.666;9.434;2022-09-09T04:51:08;14.10;99.90
15676;DHT22;7938;47.666;9.434;2022-09-09T04:53:36;14.20;99.90
15676;DHT22;7938;47.666;9.434;2022-09-09T04:56:05;14.20;99.90
15676;DHT22;7938;47.666;9.434;2022-09-09T04:58:32;14.10;99.90
15676;DHT22;7938;47.666;9.434;2022-09-09T05:01:04;14.20;99.90
15676;DHT22;7938;47.666;9.434;2022-09-09T05:03:31;14.20;99.90
15676;DHT22;7938;47.666;9.434;2022-09-09T05:06:03;14.20;99.90
15676;DHT22;7938;47.666;9.434;2022-09-09T05:08:30;14.20;99.90
15676;DHT22;7938;47.666;9.434;2022-09-09T05:10:58;14.20;99.90
15676;DHT22;7938;47.666;9.434;2022-09-09T05:13:26;14.20;99.90
15676;DHT22;7938;47.666;9.434;2022-09-09T05:15:53;14.20;99.90
15676;DHT22;7938;47.666;9.434;2022-09-09T05:18:20;14.20;99.90
15676;DHT22;7938;47.666;9.434;2022-09-09T05:20:47;14.20;99.90
15676;DHT22;7938;47.666;9.434;2022-09-09T05:23:14;14.20;99.90
15676;DHT22;7938;47.666;9.434;2022-09-09T05:25:41;14.20;99.90
15676;DHT22;7938;47.666;9.434;2022-09-09T05:28:10;14.30;99.90
15676;DHT22;7938;47.666;9.434;2022-09-09T05:30:37;14.30;99.90
15676;DHT22;7938;47.666;9.434;2022-09-09T05:33:04;14.30;99.90
15676;DHT22;7938;47.666;9.434;2022-09-09T05:35:31;14.20;99.90
15676;DHT22;7938;47.666;9.434;2022-09-09T05:37:59;14.20;99.90
15676;DHT22;7938;47.666;9.434;2022-09-09T05:40:27;14.20;99.90
15676;DHT22;7938;47.666;9.434;2022-09-09T05:42:54;14.20;99.90
15676;DHT22;7938;47.666;9.434;2022-09-09T05:45:22;14.20;99.90
15676;DHT22;7938;47.666;9.434;2022-09-09T05:47:51;14.20;99.90
15676;DHT22;7938;47.666;9.434;2022-09-09T05:50:19;14.20;99.90
15676;DHT22;7938;47.666;9.434;2022-09-09T05:52:46;14.10;99.90
15676;DHT22;7938;47.666;9.434;2022-09-09T05:55:15;14.20;99.90
15676;DHT22;7938;47.666;9.434;2022-09-09T05:57:48;14.10;99.90
15676;DHT22;7938;47.666;9.434;2022-09-09T06:00:15;14.20;99.90
15676;DHT22;7938;47.666;9.434;2022-09-09T06:02:43;14.10;99.90
15676;DHT22;7938;47.666;9.434;2022-09-09T06:05:11;14.20;99.90
15676;DHT22;7938;47.666;9.434;2022-09-09T06:07:38;14.20;99.90
15676;DHT22;7938;47.666;9.434;2022-09-09T06:10:08;14.20;99.90
15676;DHT22;7938;47.666;9.434;2022-09-09T06:12:35;14.20;99.90
15676;DHT22;7938;47.666;9.434;2022-09-09T06:15:02;14.30;99.90
15676;DHT22;7938;47.666;9.434;2022-09-09T06:17:29;14.30;99.90
15676;DHT22;7938;47.666;9.434;2022-09-09T06:19:57;14.20;99.90
15676;DHT22;7938;47.666;9.434;2022-09-09T06:22:24;14.30;99.90
15676;DHT22;7938;47.666;9.434;2022-09-09T06:24:51;14.30;99.90
15676;DHT22;7938;47.666;9.434;2022-09-09T06:27:19;14.40;99.90
15676;DHT22;7938;47.666;9.434;2022-09-09T06:29:46;14.40;99.90
15676;DHT22;7938;47.666;9.434;2022-09-09T06:32:14;14.30;99.90
15676;DHT22;7938;47.666;9.434;2022-09-09T06:34:41;14.40;99.90
15676;DHT22;7938;47.666;9.434;2022-09-09T06:37:09;14.40;99.90
15676;DHT22;7938;47.666;9.434;2022-09-09T06:39:36;14.40;99.90
15676;DHT22;7938;47.666;9.434;2022-09-09T06:42:03;14.50;99.90
15676;DHT22;7938;47.666;9.434;2022-09-09T06:44:30;14.50;99.90
15676;DHT22;7938;47.666;9.434;2022-09-09T06:46:57;14.60;99.90
15676;DHT22;7938;47.666;9.434;2022-09-09T06:49:24;14.70;99.90
15676;DHT22;7938;47.666;9.434;2022-09-09T06:51:51;14.70;99.90
15676;DHT22;7938;47.666;9.434;2022-09-09T06:54:19;14.80;99.90
15676;DHT22;7938;47.666;9.434;2022-09-09T06:56:47;14.80;99.90
15676;DHT22;7938;47.666;9.434;2022-09-09T06:59:14;14.90;99.90
15676;DHT22;7938;47.666;9.434;2022-09-09T07:01:42;14.90;99.90
15676;DHT22;7938;47.666;9.434;2022-09-09T07:04:10;14.90;99.90
15676;DHT22;7938;47.666;9.434;2022-09-09T07:06:40;15.00;99.90
15676;DHT22;7938;47.666;9.434;2022-09-09T07:09:10;15.00;99.90
15676;DHT22;7938;47.666;9.434;2022-09-09T07:11:39;15.10;99.90
15676;DHT22;7938;47.666;9.434;2022-09-09T07:14:07;15.20;99.90
15676;DHT22;7938;47.666;9.434;2022-09-09T07:16:36;15.20;99.90
15676;DHT22;7938;47.666;9.434;2022-09-09T07:19:04;15.20;99.90
15676;DHT22;7938;47.666;9.434;2022-09-09T07:21:32;15.20;99.90
15676;DHT22;7938;47.666;9.434;2022-09-09T07:23:59;15.20;99.90
15676;DHT22;7938;47.666;9.434;2022-09-09T07:26:27;15.20;99.90
15676;DHT22;7938;47.666;9.434;2022-09-09T07:28:56;15.20;99.90
15676;DHT22;7938;47.666;9.434;2022-09-09T07:31:26;15.20;99.90
15676;DHT22;7938;47.666;9.434;2022-09-09T07:33:53;15.20;99.90
15676;DHT22;7938;47.666;9.434;2022-09-09T07:36:22;15.30;99.90
15676;DHT22;7938;47.666;9.434;2022-09-09T07:38:50;15.40;99.90
15676;DHT22;7938;47.666;9.434;2022-09-09T07:41:19;15.50;99.90
15676;DHT22;7938;47.666;9.434;2022-09-09T07:43:48;15.50;99.90
15676;DHT22;7938;47.666;9.434;2022-09-09T07:46:18;15.60;99.90
15676;DHT22;7938;47.666;9.434;2022-09-09T07:48:46;15.80;99.90
15676;DHT22;7938;47.666;9.434;2022-09-09T07:51:19;16.10;99.90
15676;DHT22;7938;47.666;9.434;2022-09-09T07:53:47;16.10;99.90
15676;DHT22;7938;47.666;9.434;2022-09-09T07:56:16;16.20;99.90
15676;DHT22;7938;47.666;9.434;2022-09-09T07:58:45;16.30;99.90
15676;DHT22;7938;47.666;9.434;2022-09-09T08:01:16;16.40;99.90
15676;DHT22;7938;47.666;9.434;2022-09-09T08:03:43;16.40;99.90
15676;DHT22;7938;47.666;9.434;2022-09-09T08:06:11;16.50;99.90
15676;DHT22;7938;47.666;9.434;2022-09-09T08:08:39;16.40;99.90
15676;DHT22;7938;47.666;9.434;2022-09-09T08:11:09;16.60;99.90
15676;DHT22;7938;47.666;9.434;2022-09-09T08:13:37;16.60;99.90
15676;DHT22;7938;47.666;9.434;2022-09-09T08:16:06;16.80;99.90
15676;DHT22;7938;47.666;9.434;2022-09-09T08:18:35;16.90;99.90
15676;DHT22;7938;47.666;9.434;2022-09-09T08:21:10;17.20;99.90
15676;DHT22;7938;47.666;9.434;2022-09-09T08:23:39;17.30;99.90
15676;DHT22;7938;47.666;9.434;2022-09-09T08:26:10;17.40;99.90
15676;DHT22;7938;47.666;9.434;2022-09-09T08:28:37;17.50;99.90
15676;DHT22;7938;47.666;9.434;2022-09-09T08:31:10;17.30;99.90
15676;DHT22;7938;47.666;9.434;2022-09-09T08:33:38;17.30;99.90
15676;DHT22;7938;47.666;9.434;2022-09-09T08:36:09;17.10;99.90
15676;DHT22;7938;47.666;9.434;2022-09-09T08:38:37;17.00;99.90
15676;DHT22;7938;47.666;9.434;2022-09-09T08:41:27;17.20;99.90
15676;DHT22;7938;47.666;9.434;2022-09-09T08:44:01;17.40;99.90
15676;DHT22;7938;47.666;9.434;2022-09-09T08:46:36;17.70;99.90
15676;DHT22;7938;47.666;9.434;2022-09-09T08:49:18;17.90;99.90
15676;DHT22;7938;47.666;9.434;2022-09-09T08:51:49;18.00;99.90
15676;DHT22;7938;47.666;9.434;2022-09-09T08:54:17;18.20;99.90
15676;DHT22;7938;47.666;9.434;2022-09-09T08:56:44;18.40;99.90
15676;DHT22;7938;47.666;9.434;2022-09-09T08:59:16;18.40;99.90
15676;DHT22;7938;47.666;9.434;2022-09-09T09:01:59;18.40;99.90
15676;DHT22;7938;47.666;9.434;2022-09-09T09:04:55;18.40;99.90
15676;DHT22;7938;47.666;9.434;2022-09-09T09:07:37;18.50;99.90
15676;DHT22;7938;47.666;9.434;2022-09-09T09:10:16;18.50;99.90
15676;DHT22;7938;47.666;9.434;2022-09-09T09:12:47;18.10;99.90
15676;DHT22;7938;47.666;9.434;2022-09-09T09:15:18;18.10;99.90
15676;DHT22;7938;47.666;9.434;2022-09-09T09:17:46;18.00;99.90
15676;DHT22;7938;47.666;9.434;2022-09-09T09:20:17;18.10;99.90
15676;DHT22;7938;47.666;9.434;2022-09-09T09:22:48;18.70;99.90
15676;DHT22;7938;47.666;9.434;2022-09-09T09:25:19;18.20;99.90
15676;DHT22;7938;47.666;9.434;2022-09-09T09:27:54;18.20;99.90
15676;DHT22;7938;47.666;9.434;2022-09-09T09:30:27;18.30;99.90
15676;DHT22;7938;47.666;9.434;2022-09-09T09:32:59;18.30;99.90
15676;DHT22;7938;47.666;9.434;2022-09-09T09:35:28;18.20;99.90
15676;DHT22;7938;47.666;9.434;2022-09-09T09:37:55;18.20;99.90
15676;DHT22;7938;47.666;9.434;2022-09-09T09:40:23;18.20;99.90
15676;DHT22;7938;47.666;9.434;2022-09-09T09:42:52;18.20;99.90
15676;DHT22;7938;47.666;9.434;2022-09-09T09:45:28;18.30;99.90
15676;DHT22;7938;47.666;9.434;2022-09-09T09:48:01;18.30;99.90
15676;DHT22;7938;47.666;9.434;2022-09-09T09:50:31;18.40;99.90
15676;DHT22;7938;47.666;9.434;2022-09-09T09:53:00;18.40;99.90
15676;DHT22;7938;47.666;9.434;2022-09-09T09:55:31;18.40;99.90
15676;DHT22;7938;47.666;9.434;2022-09-09T09:58:03;18.50;99.90
15676;DHT22;7938;47.666;9.434;2022-09-09T10:00:31;18.50;99.90
15676;DHT22;7938;47.666;9.434;2022-09-09T10:03:00;18.60;99.90
15676;DHT22;7938;47.666;9.434;2022-09-09T10:05:30;19.00;99.90
15676;DHT22;7938;47.666;9.434;2022-09-09T10:08:02;19.50;99.90
15676;DHT22;7938;47.666;9.434;2022-09-09T10:10:40;20.00;99.90
15676;DHT22;7938;47.666;9.434;2022-09-09T10:13:13;20.00;99.90
15676;DHT22;7938;47.666;9.434;2022-09-09T10:15:50;20.40;99.90
15676;DHT22;7938;47.666;9.434;2022-09-09T10:18:38;20.50;99.90
15676;DHT22;7938;47.666;9.434;2022-09-09T10:21:17;20.60;99.90
15676;DHT22;7938;47.666;9.434;2022-09-09T10:24:11;20.40;99.90
15676;DHT22;7938;47.666;9.434;2022-09-09T10:26:47;20.30;99.90
15676;DHT22;7938;47.666;9.434;2022-09-09T10:29:28;20.20;99.90
15676;DHT22;7938;47.666;9.434;2022-09-09T10:32:11;20.30;99.90
15676;DHT22;7938;47.666;9.434;2022-09-09T10:35:02;20.20;99.90
15676;DHT22;7938;47.666;9.434;2022-09-09T10:37:44;20.20;99.90
15676;DHT22;7938;47.666;9.434;2022-09-09T10:40:27;19.90;99.90
15676;DHT22;7938;47.666;9.434;2022-09-09T10:43:03;19.80;99.90
15676;DHT22;7938;47.666;9.434;2022-09-09T10:45:41;19.70;99.90
15676;DHT22;7938;47.666;9.434;2022-09-09T10:48:24;19.50;99.90
15676;DHT22;7938;47.666;9.434;2022-09-09T10:51:05;19.70;99.90
15676;DHT22;7938;47.666;9.434;2022-09-09T10:53:45;19.50;99.90
15676;DHT22;7938;47.666;9.434;2022-09-09T10:56:16;19.50;99.90
15676;DHT22;7938;47.666;9.434;2022-09-09T10:58:47;19.60;99.90
15676;DHT22;7938;47.666;9.434;2022-09-09T11:01:19;19.50;99.90
15676;DHT22;7938;47.666;9.434;2022-09-09T11:03:51;19.50;99.90
15676;DHT22;7938;47.666;9.434;2022-09-09T11:06:24;19.50;99.90
15676;DHT22;7938;47.666;9.434;2022-09-09T11:08:57;19.50;99.90
15676;DHT22;7938;47.666;9.434;2022-09-09T11:11:29;19.30;99.90
15676;DHT22;7938;47.666;9.434;2022-09-09T11:14:01;19.20;99.90
15676;DHT22;7938;47.666;9.434;2022-09-09T11:16:34;19.20;99.90
15676;DHT22;7938;47.666;9.434;2022-09-09T11:19:05;19.10;99.90
15676;DHT22;7938;47.666;9.434;2022-09-09T11:21:42;18.80;99.90
15676;DHT22;7938;47.666;9.434;2022-09-09T11:24:18;18.90;99.90
15676;DHT22;7938;47.666;9.434;2022-09-09T11:26:51;19.30;99.90
15676;DHT22;7938;47.666;9.434;2022-09-09T11:32:50;20.60;99.90
15676;DHT22;7938;47.666;9.434;2022-09-09T11:35:30;21.20;99.90
15676;DHT22;7938;47.666;9.434;2022-09-09T11:38:21;21.50;99.90
15676;DHT22;7938;47.666;9.434;2022-09-09T11:40:58;21.00;99.90
15676;DHT22;7938;47.666;9.434;2022-09-09T11:43:29;20.90;99.90
15676;DHT22;7938;47.666;9.434;2022-09-09T11:46:00;20.70;99.90
15676;DHT22;7938;47.666;9.434;2022-09-09T11:48:35;20.60;99.90
15676;DHT22;7938;47.666;9.434;2022-09-09T11:51:05;20.20;99.90
15676;DHT22;7938;47.666;9.434;2022-09-09T11:53:34;20.20;99.90
15676;DHT22;7938;47.666;9.434;2022-09-09T11:56:09;20.40;99.90
15676;DHT22;7938;47.666;9.434;2022-09-09T11:58:43;20.40;99.90
15676;DHT22;7938;47.666;9.434;2022-09-09T12:01:25;20.60;99.90
15676;DHT22;7938;47.666;9.434;2022-09-09T12:04:05;20.90;99.90
15676;DHT22;7938;47.666;9.434;2022-09-09T12:06:43;21.40;99.90
15676;DHT22;7938;47.666;9.434;2022-09-09T12:09:18;21.10;99.90
15676;DHT22;7938;47.666;9.434;2022-09-09T12:11:49;21.30;99.90
15676;DHT22;7938;47.666;9.434;2022-09-09T12:14:21;21.20;99.90
15676;DHT22;7938;47.666;9.434;2022-09-09T12:16:49;21.00;99.90
15676;DHT22;7938;47.666;9.434;2022-09-09T12:19:23;20.90;99.90
15676;DHT22;7938;47.666;9.434;2022-09-09T12:21:54;21.00;99.90
15676;DHT22;7938;47.666;9.434;2022-09-09T12:24:30;20.90;99.90
15676;DHT22;7938;47.666;9.434;2022-09-09T12:27:07;20.70;99.90
15676;DHT22;7938;47.666;9.434;2022-09-09T12:29:40;20.80;99.90
15676;DHT22;7938;47.666;9.434;2022-09-09T12:32:11;21.00;99.90
15676;DHT22;7938;47.666;9.434;2022-09-09T12:34:41;20.90;99.90
15676;DHT22;7938;47.666;9.434;2022-09-09T12:37:27;21.10;99.90
15676;DHT22;7938;47.666;9.434;2022-09-09T12:39:57;21.40;99.90
15676;DHT22;7938;47.666;9.434;2022-09-09T12:42:26;21.30;99.90
15676;DHT22;7938;47.666;9.434;2022-09-09T12:44:55;21.30;99.90
15676;DHT22;7938;47.666;9.434;2022-09-09T12:47:28;21.10;99.90
15676;DHT22;7938;47.666;9.434;2022-09-09T12:49:56;20.80;99.90
15676;DHT22;7938;47.666;9.434;2022-09-09T12:52:27;20.60;99.90
15676;DHT22;7938;47.666;9.434;2022-09-09T12:54:57;20.70;99.90
15676;DHT22;7938;47.666;9.434;2022-09-09T12:57:31;20.80;99.90
15676;DHT22;7938;47.666;9.434;2022-09-09T13:00:06;20.80;99.90
15676;DHT22;7938;47.666;9.434;2022-09-09T13:02:35;20.80;99.90
15676;DHT22;7938;47.666;9.434;2022-09-09T13:05:09;20.80;99.90
15676;DHT22;7938;47.666;9.434;2022-09-09T13:07:39;20.80;99.90
15676;DHT22;7938;47.666;9.434;2022-09-09T13:10:11;20.70;99.90
15676;DHT22;7938;47.666;9.434;2022-09-09T13:12:39;20.80;99.90
15676;DHT22;7938;47.666;9.434;2022-09-09T13:15:14;20.80;99.90
15676;DHT22;7938;47.666;9.434;2022-09-09T13:17:50;20.80;99.90
15676;DHT22;7938;47.666;9.434;2022-09-09T13:20:19;20.90;99.90
15676;DHT22;7938;47.666;9.434;2022-09-09T13:22:48;20.90;99.90
15676;DHT22;7938;47.666;9.434;2022-09-09T13:25:22;20.80;99.90
15676;DHT22;7938;47.666;9.434;2022-09-09T13:28:01;20.80;99.90
15676;DHT22;7938;47.666;9.434;2022-09-09T13:30:30;21.00;99.90
15676;DHT22;7938;47.666;9.434;2022-09-09T13:33:21;21.00;99.90
15676;DHT22;7938;47.666;9.434;2022-09-09T13:35:51;20.90;99.90
15676;DHT22;7938;47.666;9.434;2022-09-09T13:38:19;21.10;99.90
15676;DHT22;7938;47.666;9.434;2022-09-09T13:40:55;21.20;99.90
15676;DHT22;7938;47.666;9.434;2022-09-09T13:43:25;21.30;99.90
15676;DHT22;7938;47.666;9.434;2022-09-09T13:45:56;21.30;99.90
15676;DHT22;7938;47.666;9.434;2022-09-09T13:48:25;21.20;99.90
15676;DHT22;7938;47.666;9.434;2022-09-09T13:50:56;21.50;99.90
15676;DHT22;7938;47.666;9.434;2022-09-09T13:53:23;21.40;99.90
15676;DHT22;7938;47.666;9.434;2022-09-09T13:55:50;21.50;99.90
15676;DHT22;7938;47.666;9.434;2022-09-09T13:58:18;21.50;99.90
15676;DHT22;7938;47.666;9.434;2022-09-09T14:00:46;21.60;99.90
15676;DHT22;7938;47.666;9.434;2022-09-09T14:03:13;21.60;99.90
15676;DHT22;7938;47.666;9.434;2022-09-09T14:05:48;21.90;99.90
15676;DHT22;7938;47.666;9.434;2022-09-09T14:08:21;21.80;99.90
15676;DHT22;7938;47.666;9.434;2022-09-09T14:10:49;21.90;99.90
15676;DHT22;7938;47.666;9.434;2022-09-09T14:13:16;21.80;99.90
15676;DHT22;7938;47.666;9.434;2022-09-09T14:15:43;21.80;99.90
15676;DHT22;7938;47.666;9.434;2022-09-09T14:18:12;22.10;99.90
15676;DHT22;7938;47.666;9.434;2022-09-09T14:20:40;22.40;99.90
15676;DHT22;7938;47.666;9.434;2022-09-09T14:23:10;22.40;99.90
15676;DHT22;7938;47.666;9.434;2022-09-09T14:25:40;22.40;99.90
15676;DHT22;7938;47.666;9.434;2022-09-09T14:28:09;22.50;99.90
15676;DHT22;7938;47.666;9.434;2022-09-09T14:30:37;21.10;99.90
15676;DHT22;7938;47.666;9.434;2022-09-09T14:33:05;21.10;99.90
15676;DHT22;7938;47.666;9.434;2022-09-09T14:35:33;21.00;99.90
15676;DHT22;7938;47.666;9.434;2022-09-09T14:38:02;21.10;99.90
15676;DHT22;7938;47.666;9.434;2022-09-09T14:40:29;22.70;99.90
15676;DHT22;7938;47.666;9.434;2022-09-09T14:42:56;22.80;99.90
15676;DHT22;7938;47.666;9.434;2022-09-09T14:45:24;24.30;99.90
15676;DHT22;7938;47.666;9.434;2022-09-09T14:47:52;25.00;99.90
15676;DHT22;7938;47.666;9.434;2022-09-09T14:50:19;27.10;98.40
15676;DHT22;7938;47.666;9.434;2022-09-09T14:52:48;27.00;98.60
15676;DHT22;7938;47.666;9.434;2022-09-09T14:55:16;27.30;97.50
15676;DHT22;7938;47.666;9.434;2022-09-09T14:57:43;27.50;96.90
15676;DHT22;7938;47.666;9.434;2022-09-09T15:00:11;28.40;95.60
15676;DHT22;7938;47.666;9.434;2022-09-09T15:02:38;29.40;94.10
15676;DHT22;7938;47.666;9.434;2022-09-09T15:05:06;29.10;94.00
15676;DHT22;7938;47.666;9.434;2022-09-09T15:07:33;29.70;93.20
15676;DHT22;7938;47.666;9.434;2022-09-09T15:10:03;29.80;93.50
15676;DHT22;7938;47.666;9.434;2022-09-09T15:12:30;30.00;92.40
15676;DHT22;7938;47.666;9.434;2022-09-09T15:14:57;29.80;92.50
15676;DHT22;7938;47.666;9.434;2022-09-09T15:17:24;29.40;92.50
15676;DHT22;7938;47.666;9.434;2022-09-09T15:19:51;30.20;92.80
15676;DHT22;7938;47.666;9.434;2022-09-09T15:22:18;29.80;91.30
15676;DHT22;7938;47.666;9.434;2022-09-09T15:24:45;27.80;92.60
15676;DHT22;7938;47.666;9.434;2022-09-09T15:27:14;26.10;94.30
15676;DHT22;7938;47.666;9.434;2022-09-09T15:29:41;24.30;96.20
15676;DHT22;7938;47.666;9.434;2022-09-09T15:32:09;23.00;98.00
15676;DHT22;7938;47.666;9.434;2022-09-09T15:34:36;22.30;99.60
15676;DHT22;7938;47.666;9.434;2022-09-09T15:37:03;21.80;99.90
15676;DHT22;7938;47.666;9.434;2022-09-09T15:39:31;21.40;99.90
15676;DHT22;7938;47.666;9.434;2022-09-09T15:41:58;21.20;99.90
15676;DHT22;7938;47.666;9.434;2022-09-09T15:44:28;21.50;99.90
15676;DHT22;7938;47.666;9.434;2022-09-09T15:46:55;23.40;99.90
15676;DHT22;7938;47.666;9.434;2022-09-09T15:49:24;24.30;99.90
15676;DHT22;7938;47.666;9.434;2022-09-09T15:51:52;24.70;99.90
15676;DHT22;7938;47.666;9.434;2022-09-09T15:54:21;23.60;99.90
15676;DHT22;7938;47.666;9.434;2022-09-09T15:56:51;23.00;99.90
15676;DHT22;7938;47.666;9.434;2022-09-09T15:59:20;24.30;99.90
15676;DHT22;7938;47.666;9.434;2022-09-09T16:01:48;26.30;99.90
15676;DHT22;7938;47.666;9.434;2022-09-09T16:04:17;27.70;97.80
15676;DHT22;7938;47.666;9.434;2022-09-09T16:06:49;28.90;96.50
15676;DHT22;7938;47.666;9.434;2022-09-09T16:09:17;29.20;94.90
15676;DHT22;7938;47.666;9.434;2022-09-09T16:11:45;28.90;94.80
15676;DHT22;7938;47.666;9.434;2022-09-09T16:14:12;29.10;94.70
15676;DHT22;7938;47.666;9.434;2022-09-09T16:16:41;29.10;94.10
15676;DHT22;7938;47.666;9.434;2022-09-09T16:19:11;28.90;94.60
15676;DHT22;7938;47.666;9.434;2022-09-09T16:21:40;29.60;94.20
15676;DHT22;7938;47.666;9.434;2022-09-09T16:24:09;29.40;93.30
15676;DHT22;7938;47.666;9.434;2022-09-09T16:26:40;29.60;92.00
15676;DHT22;7938;47.666;9.434;2022-09-09T16:29:08;29.80;92.20
15676;DHT22;7938;47.666;9.434;2022-09-09T16:31:35;29.70;91.70
15676;DHT22;7938;47.666;9.434;2022-09-09T16:34:03;28.70;92.50
15676;DHT22;7938;47.666;9.434;2022-09-09T16:36:32;28.40;92.90
15676;DHT22;7938;47.666;9.434;2022-09-09T16:39:02;28.00;93.30
15676;DHT22;7938;47.666;9.434;2022-09-09T16:41:30;27.70;93.90
15676;DHT22;7938;47.666;9.434;2022-09-09T16:44:07;27.60;93.30
15676;DHT22;7938;47.666;9.434;2022-09-09T16:46:37;27.30;93.60
15676;DHT22;7938;47.666;9.434;2022-09-09T16:49:06;26.60;94.10
15676;DHT22;7938;47.666;9.434;2022-09-09T16:51:36;25.10;96.20
15676;DHT22;7938;47.666;9.434;2022-09-09T16:54:05;24.60;96.30
15676;DHT22;7938;47.666;9.434;2022-09-09T16:56:34;23.50;97.80
15676;DHT22;7938;47.666;9.434;2022-09-09T16:59:05;22.60;99.50
15676;DHT22;7938;47.666;9.434;2022-09-09T17:01:33;21.20;99.90
15676;DHT22;7938;47.666;9.434;2022-09-09T17:04:03;21.00;99.90
15676;DHT22;7938;47.666;9.434;2022-09-09T17:06:31;20.40;99.90
15676;DHT22;7938;47.666;9.434;2022-09-09T17:09:04;20.10;99.90
15676;DHT22;7938;47.666;9.434;2022-09-09T17:11:31;19.60;99.90
15676;DHT22;7938;47.666;9.434;2022-09-09T17:13:59;19.50;99.90
15676;DHT22;7938;47.666;9.434;2022-09-09T17:16:28;19.20;99.90
15676;DHT22;7938;47.666;9.434;2022-09-09T17:18:56;18.90;99.90
15676;DHT22;7938;47.666;9.434;2022-09-09T17:21:26;18.60;99.90
15676;DHT22;7938;47.666;9.434;2022-09-09T17:23:54;18.50;99.90
15676;DHT22;7938;47.666;9.434;2022-09-09T17:26:24;18.30;99.90
15676;DHT22;7938;47.666;9.434;2022-09-09T17:28:52;18.10;99.90
15676;DHT22;7938;47.666;9.434;2022-09-09T17:31:20;17.80;99.90
15676;DHT22;7938;47.666;9.434;2022-09-09T17:33:48;17.80;99.90
15676;DHT22;7938;47.666;9.434;2022-09-09T17:36:16;17.70;99.90
15676;DHT22;7938;47.666;9.434;2022-09-09T17:38:44;17.70;99.90
15676;DHT22;7938;47.666;9.434;2022-09-09T17:41:14;17.40;99.90
15676;DHT22;7938;47.666;9.434;2022-09-09T17:43:43;17.40;99.90
15676;DHT22;7938;47.666;9.434;2022-09-09T17:46:12;17.30;99.90
15676;DHT22;7938;47.666;9.434;2022-09-09T17:48:40;17.20;99.90
15676;DHT22;7938;47.666;9.434;2022-09-09T17:51:09;17.10;99.90
15676;DHT22;7938;47.666;9.434;2022-09-09T17:53:38;17.00;99.90
15676;DHT22;7938;47.666;9.434;2022-09-09T17:56:07;16.90;99.90
15676;DHT22;7938;47.666;9.434;2022-09-09T17:58:34;16.90;99.90
15676;DHT22;7938;47.666;9.434;2022-09-09T18:01:04;16.80;99.90
15676;DHT22;7938;47.666;9.434;2022-09-09T18:03:32;16.80;99.90
15676;DHT22;7938;47.666;9.434;2022-09-09T18:06:00;16.70;99.90
15676;DHT22;7938;47.666;9.434;2022-09-09T18:08:27;16.70;99.90
15676;DHT22;7938;47.666;9.434;2022-09-09T18:10:54;16.70;99.90
15676;DHT22;7938;47.666;9.434;2022-09-09T18:13:21;16.70;99.90
15676;DHT22;7938;47.666;9.434;2022-09-09T18:15:48;16.80;99.90
15676;DHT22;7938;47.666;9.434;2022-09-09T18:18:16;16.70;99.90
15676;DHT22;7938;47.666;9.434;2022-09-09T18:20:43;16.80;99.90
15676;DHT22;7938;47.666;9.434;2022-09-09T18:23:10;16.80;99.90
15676;DHT22;7938;47.666;9.434;2022-09-09T18:25:38;17.00;99.90
15676;DHT22;7938;47.666;9.434;2022-09-09T18:28:05;16.20;99.90
15676;DHT22;7938;47.666;9.434;2022-09-09T18:30:32;14.80;99.90
15676;DHT22;7938;47.666;9.434;2022-09-09T18:32:59;14.60;99.90
15676;DHT22;7938;47.666;9.434;2022-09-09T18:35:27;14.10;99.90
15676;DHT22;7938;47.666;9.434;2022-09-09T18:37:54;13.60;99.90
15676;DHT22;7938;47.666;9.434;2022-09-09T18:40:22;13.30;99.90
15676;DHT22;7938;47.666;9.434;2022-09-09T18:42:50;13.30;99.90
15676;DHT22;7938;47.666;9.434;2022-09-09T18:45:16;13.30;99.90
15676;DHT22;7938;47.666;9.434;2022-09-09T18:47:43;13.30;99.90
15676;DHT22;7938;47.666;9.434;2022-09-09T18:50:13;13.30;99.90
15676;DHT22;7938;47.666;9.434;2022-09-09T18:52:42;13.30;99.90
15676;DHT22;7938;47.666;9.434;2022-09-09T18:55:09;13.30;99.90
15676;DHT22;7938;47.666;9.434;2022-09-09T18:57:36;13.10;99.90
15676;DHT22;7938;47.666;9.434;2022-09-09T19:00:04;13.10;99.90
15676;DHT22;7938;47.666;9.434;2022-09-09T19:02:32;13.10;99.90
15676;DHT22;7938;47.666;9.434;2022-09-09T19:04:59;13.10;99.90
15676;DHT22;7938;47.666;9.434;2022-09-09T19:07:27;13.00;99.90
15676;DHT22;7938;47.666;9.434;2022-09-09T19:09:55;13.00;99.90
15676;DHT22;7938;47.666;9.434;2022-09-09T19:12:22;13.00;99.90
15676;DHT22;7938;47.666;9.434;2022-09-09T19:14:49;13.00;99.90
15676;DHT22;7938;47.666;9.434;2022-09-09T19:17:16;13.00;99.90
15676;DHT22;7938;47.666;9.434;2022-09-09T19:19:43;12.90;99.90
15676;DHT22;7938;47.666;9.434;2022-09-09T19:22:10;12.80;99.90
15676;DHT22;7938;47.666;9.434;2022-09-09T19:24:38;12.80;99.90
15676;DHT22;7938;47.666;9.434;2022-09-09T19:27:07;12.80;99.90
15676;DHT22;7938;47.666;9.434;2022-09-09T19:29:36;12.70;99.90
15676;DHT22;7938;47.666;9.434;2022-09-09T19:32:05;12.80;99.90
15676;DHT22;7938;47.666;9.434;2022-09-09T19:34:31;12.70;99.90
15676;DHT22;7938;47.666;9.434;2022-09-09T19:36:58;12.80;99.90
15676;DHT22;7938;47.666;9.434;2022-09-09T19:39:25;12.90;99.90
15676;DHT22;7938;47.666;9.434;2022-09-09T19:41:52;13.00;99.90
15676;DHT22;7938;47.666;9.434;2022-09-09T19:44:21;13.10;99.90
15676;DHT22;7938;47.666;9.434;2022-09-09T19:46:48;13.20;99.90
15676;DHT22;7938;47.666;9.434;2022-09-09T19:49:14;13.30;99.90
15676;DHT22;7938;47.666;9.434;2022-09-09T19:51:41;13.40;99.90
15676;DHT22;7938;47.666;9.434;2022-09-09T19:54:11;13.50;99.90
15676;DHT22;7938;47.666;9.434;2022-09-09T19:56:39;13.50;99.90
15676;DHT22;7938;47.666;9.434;2022-09-09T19:59:07;13.60;99.90
15676;DHT22;7938;47.666;9.434;2022-09-09T20:01:38;13.60;99.90
15676;DHT22;7938;47.666;9.434;2022-09-09T20:04:06;13.70;99.90
15676;DHT22;7938;47.666;9.434;2022-09-09T20:06:35;13.80;99.90